Time;durP1;ratioP1;P1;durP2;ratioP2;P2;SDS_P1;SDS_P2;PMS_P1;PMS_P2;Temp;Humidity;BMP_temperature;BMP_pressure;BME280_temperature;BME280_humidity;BME280_pressure;Samples;Min_cycle;Max_cycle;Signal;HPM_P1;HPM_P2
2021/04/17 00:01:23;;;;;;;;;;;7.10;99.10;;;;;;5054573;28;19922;-92
2021/04/17 00:03:49;;;;;;;;;;;7.10;99.10;;;;;;5040329;28;19963;-91
2021/04/17 00:06:14;;;;;;;;;;;7.10;99.00;;;;;;5028110;28;19913;-91
2021/04/17 00:08:40;;;;;;;;;;;7.10;99.10;;;;;;5054856;28;20263;-93
2021/04/17 00:11:06;;;;;;;;;;;7.10;99.00;;;;;;5021353;28;20420;-93
2021/04/17 00:13:32;;;;;;;;;;;7.10;99.00;;;;;;5027420;28;19913;-92
2021/04/17 00:15:57;;;;;;;;;;;7.10;99.00;;;;;;5037533;28;19925;-90
2021/04/17 00:18:23;;;;;;;;;;;7.10;99.00;;;;;;5032866;28;19912;-92
2021/04/17 00:20:49;;;;;;;;;;;7.10;99.00;;;;;;5055555;28;19947;-92
2021/04/17 00:23:15;;;;;;;;;;;7.10;99.00;;;;;;5047207;28;19939;-93
2021/04/17 00:25:41;;;;;;;;;;;7.10;99.00;;;;;;5037427;28;19913;-91
2021/04/17 00:28:06;;;;;;;;;;;7.10;99.00;;;;;;5032469;28;19921;-91
2021/04/17 00:30:32;;;;;;;;;;;7.10;99.00;;;;;;5022295;28;19923;-91
2021/04/17 00:32:57;;;;;;;;;;;7.10;99.00;;;;;;5054946;28;19924;-92
2021/04/17 00:35:23;;;;;;;;;;;7.10;99.00;;;;;;5048642;28;19975;-90
2021/04/17 00:37:48;;;;;;;;;;;7.10;99.00;;;;;;5049723;28;19908;-92
2021/04/17 00:40:14;;;;;;;;;;;7.10;99.10;;;;;;5055133;28;19909;-93
2021/04/17 00:42:39;;;;;;;;;;;7.10;99.10;;;;;;5051643;28;20278;-92
2021/04/17 00:45:05;;;;;;;;;;;7.10;99.10;;;;;;5052291;28;20332;-91
2021/04/17 00:47:31;;;;;;;;;;;7.10;99.10;;;;;;5046342;28;19920;-93
2021/04/17 00:49:56;;;;;;;;;;;7.10;99.00;;;;;;5055094;28;19909;-92
2021/04/17 00:52:22;;;;;;;;;;;7.10;99.00;;;;;;5055010;28;19959;-93
2021/04/17 00:54:47;;;;;;;;;;;7.20;99.10;;;;;;5049477;28;19917;-92
2021/04/17 00:57:13;;;;;;;;;;;7.10;99.00;;;;;;5053463;28;19978;-93
2021/04/17 00:59:38;;;;;;;;;;;7.20;99.00;;;;;;5054957;28;19916;-91
2021/04/17 01:02:04;;;;;;;;;;;7.20;99.00;;;;;;5053611;28;19972;-90
2021/04/17 01:04:31;;;;;;;;;;;7.10;98.90;;;;;;5055234;28;19920;-93
2021/04/17 01:07:06;;;;;;;;;;;7.20;99.00;;;;;;5040886;28;20382;-92
2021/04/17 01:09:53;;;;;;;;;;;7.10;98.80;;;;;;5035235;28;19920;-93
2021/04/17 01:12:23;;;;;;;;;;;7.10;98.90;;;;;;5053870;28;19921;-93
2021/04/17 01:14:52;;;;;;;;;;;7.10;98.90;;;;;;5042244;28;19963;-90
2021/04/17 01:17:18;;;;;;;;;;;7.10;99.00;;;;;;5036823;28;19917;-92
2021/04/17 01:19:46;;;;;;;;;;;7.10;99.00;;;;;;5052182;28;20393;-90
2021/04/17 01:22:20;;;;;;;;;;;7.10;98.90;;;;;;5026148;28;19920;-90
2021/04/17 01:24:50;;;;;;;;;;;7.10;98.90;;;;;;5053600;28;20123;-92
2021/04/17 01:27:16;;;;;;;;;;;7.10;99.00;;;;;;5036156;28;19931;-94
2021/04/17 01:29:42;;;;;;;;;;;7.10;99.00;;;;;;5049208;28;20414;-93
2021/04/17 01:32:09;;;;;;;;;;;7.10;99.10;;;;;;5036326;28;19967;-92
2021/04/17 01:34:35;;;;;;;;;;;7.10;99.10;;;;;;5054095;28;20281;-91
2021/04/17 01:37:01;;;;;;;;;;;7.10;99.10;;;;;;5032680;28;19912;-91
2021/04/17 01:39:27;;;;;;;;;;;7.10;99.00;;;;;;5030713;28;20000;-91
2021/04/17 01:41:55;;;;;;;;;;;7.10;99.00;;;;;;5036215;28;19992;-92
2021/04/17 01:44:25;;;;;;;;;;;7.10;99.00;;;;;;5035667;28;19913;-92
2021/04/17 01:47:07;;;;;;;;;;;7.10;99.00;;;;;;5053891;28;19913;-93
2021/04/17 01:49:35;;;;;;;;;;;7.10;98.90;;;;;;5053255;28;19920;-91
2021/04/17 01:52:01;;;;;;;;;;;7.10;98.90;;;;;;5036679;28;19919;-91
2021/04/17 01:54:28;;;;;;;;;;;7.10;98.90;;;;;;5035413;28;19921;-90
2021/04/17 01:56:56;;;;;;;;;;;7.10;98.90;;;;;;5035948;28;19916;-90
2021/04/17 01:59:22;;;;;;;;;;;7.10;98.90;;;;;;5035470;28;19975;-90
2021/04/17 02:01:48;;;;;;;;;;;7.10;98.80;;;;;;5053405;28;19913;-91
2021/04/17 02:04:13;;;;;;;;;;;7.10;98.90;;;;;;5035658;28;19920;-91
2021/04/17 02:06:39;;;;;;;;;;;7.10;98.80;;;;;;5047783;28;19917;-92
2021/04/17 02:09:05;;;;;;;;;;;7.10;99.10;;;;;;5050248;28;19969;-92
2021/04/17 02:11:31;;;;;;;;;;;7.10;98.90;;;;;;5035637;28;20294;-93
2021/04/17 02:13:58;;;;;;;;;;;7.10;98.90;;;;;;5053635;28;19988;-93
2021/04/17 02:16:39;;;;;;;;;;;7.10;98.80;;;;;;5053368;28;19913;-92
2021/04/17 02:19:08;;;;;;;;;;;7.10;98.70;;;;;;5053321;28;20395;-91
2021/04/17 02:21:38;;;;;;;;;;;7.10;98.90;;;;;;5032188;28;19924;-93
2021/04/17 02:24:04;;;;;;;;;;;7.10;98.90;;;;;;5034161;28;20434;-90
2021/04/17 02:26:30;;;;;;;;;;;7.10;98.90;;;;;;5033593;28;19959;-92
2021/04/17 02:28:56;;;;;;;;;;;7.10;98.90;;;;;;5034663;28;20325;-94
2021/04/17 02:31:23;;;;;;;;;;;7.10;98.90;;;;;;5033148;28;19919;-92
2021/04/17 02:33:48;;;;;;;;;;;7.10;98.80;;;;;;5052904;28;20378;-91
2021/04/17 02:36:14;;;;;;;;;;;7.00;98.80;;;;;;5053584;28;19916;-90
2021/04/17 02:38:39;;;;;;;;;;;7.00;98.90;;;;;;5053559;28;20378;-91
2021/04/17 02:41:05;;;;;;;;;;;7.10;99.00;;;;;;5035759;28;19944;-93
2021/04/17 02:43:30;;;;;;;;;;;7.10;99.00;;;;;;5053150;28;19917;-91
2021/04/17 02:45:57;;;;;;;;;;;7.10;99.00;;;;;;5035593;28;19917;-91
2021/04/17 02:48:22;;;;;;;;;;;7.10;98.90;;;;;;5019188;28;20389;-92
2021/04/17 02:50:48;;;;;;;;;;;7.10;98.80;;;;;;5035534;28;20003;-92
2021/04/17 02:53:13;;;;;;;;;;;7.10;98.80;;;;;;5053300;28;19952;-92
2021/04/17 02:55:39;;;;;;;;;;;7.10;98.80;;;;;;5053148;28;19924;-92
2021/04/17 02:58:04;;;;;;;;;;;7.10;98.80;;;;;;5033536;28;19909;-92
2021/04/17 03:00:30;;;;;;;;;;;7.10;98.80;;;;;;5034507;28;19920;-91
2021/04/17 03:02:55;;;;;;;;;;;7.10;98.80;;;;;;5015906;28;20054;-92
2021/04/17 03:05:21;;;;;;;;;;;7.10;98.90;;;;;;5052735;28;20982;-91
2021/04/17 03:07:47;;;;;;;;;;;7.10;98.90;;;;;;5034568;28;20362;-92
2021/04/17 03:10:13;;;;;;;;;;;7.10;98.90;;;;;;5033538;28;19921;-91
2021/04/17 03:12:38;;;;;;;;;;;7.10;98.90;;;;;;5048217;28;19916;-91
2021/04/17 03:15:05;;;;;;;;;;;7.10;98.80;;;;;;5042561;28;19960;-90
2021/04/17 03:17:31;;;;;;;;;;;7.10;98.80;;;;;;5038359;28;19955;-92
2021/04/17 03:19:56;;;;;;;;;;;7.10;98.80;;;;;;5055906;28;19913;-92
2021/04/17 03:22:22;;;;;;;;;;;7.10;98.80;;;;;;5056447;28;20008;-92
2021/04/17 03:24:47;;;;;;;;;;;7.10;98.80;;;;;;5056083;28;19956;-90
2021/04/17 03:27:13;;;;;;;;;;;7.10;98.80;;;;;;5050448;28;19919;-93
2021/04/17 03:29:39;;;;;;;;;;;7.10;98.90;;;;;;5039817;28;19935;-92
2021/04/17 03:32:04;;;;;;;;;;;7.10;98.80;;;;;;5053518;28;19908;-91
2021/04/17 03:34:30;;;;;;;;;;;7.10;98.90;;;;;;5048178;28;19921;-92
2021/04/17 03:36:56;;;;;;;;;;;7.10;98.90;;;;;;5051631;28;19909;-92
2021/04/17 03:39:21;;;;;;;;;;;7.10;98.80;;;;;;5055611;28;19913;-92
2021/04/17 03:41:47;;;;;;;;;;;7.10;98.70;;;;;;5051650;28;20335;-91
2021/04/17 03:44:12;;;;;;;;;;;7.10;98.80;;;;;;5042626;28;19919;-93
2021/04/17 03:46:38;;;;;;;;;;;7.10;98.80;;;;;;5049942;28;19956;-92
2021/04/17 03:49:04;;;;;;;;;;;7.10;98.80;;;;;;5056205;28;20003;-92
2021/04/17 03:51:29;;;;;;;;;;;7.10;98.80;;;;;;5038510;28;19909;-92
2021/04/17 03:53:55;;;;;;;;;;;7.10;98.80;;;;;;5055948;28;20334;-93
2021/04/17 03:56:20;;;;;;;;;;;7.10;98.80;;;;;;5055862;28;20147;-92
2021/04/17 03:58:46;;;;;;;;;;;7.10;98.90;;;;;;5055977;28;19968;-93
2021/04/17 04:01:12;;;;;;;;;;;7.10;98.80;;;;;;5055832;28;19915;-92
2021/04/17 04:03:37;;;;;;;;;;;7.10;98.90;;;;;;5052703;28;19909;-90
2021/04/17 04:06:03;;;;;;;;;;;7.10;98.90;;;;;;5055910;28;20343;-92
2021/04/17 04:08:28;;;;;;;;;;;7.10;98.80;;;;;;5055770;28;20007;-93
2021/04/17 04:10:54;;;;;;;;;;;7.20;98.90;;;;;;5055555;28;19999;-92
2021/04/17 04:13:20;;;;;;;;;;;7.20;98.90;;;;;;5049479;28;19999;-94
2021/04/17 04:15:45;;;;;;;;;;;7.20;98.90;;;;;;5054593;28;19921;-92
2021/04/17 04:18:11;;;;;;;;;;;7.20;98.80;;;;;;5033720;28;20426;-92
2021/04/17 04:20:37;;;;;;;;;;;7.20;99.00;;;;;;5052201;28;20011;-93
2021/04/17 04:23:02;;;;;;;;;;;7.20;99.00;;;;;;5055058;28;19921;-92
2021/04/17 04:25:28;;;;;;;;;;;7.20;99.00;;;;;;5054906;28;19994;-92
2021/04/17 04:27:55;;;;;;;;;;;7.20;98.90;;;;;;5054218;28;19916;-91
2021/04/17 04:30:22;;;;;;;;;;;7.20;98.90;;;;;;5034424;28;19941;-93
2021/04/17 04:32:47;;;;;;;;;;;7.20;98.90;;;;;;5042036;28;19975;-93
2021/04/17 04:35:13;;;;;;;;;;;7.20;98.90;;;;;;5031397;28;19925;-94
2021/04/17 04:37:39;;;;;;;;;;;7.20;99.10;;;;;;5017155;28;19909;-92
2021/04/17 04:40:05;;;;;;;;;;;7.20;99.00;;;;;;5051300;28;20340;-94
2021/04/17 04:42:31;;;;;;;;;;;7.20;99.10;;;;;;5064198;28;19915;-92
2021/04/17 04:44:56;;;;;;;;;;;7.20;99.20;;;;;;5042676;28;19912;-93
2021/04/17 04:47:22;;;;;;;;;;;7.30;99.20;;;;;;5030435;28;19958;-92
2021/04/17 04:49:47;;;;;;;;;;;7.30;99.20;;;;;;5036701;28;19909;-91
2021/04/17 04:52:13;;;;;;;;;;;7.30;99.10;;;;;;5033075;28;20071;-92
2021/04/17 04:54:38;;;;;;;;;;;7.40;99.10;;;;;;5034654;28;20392;-92
2021/04/17 04:57:04;;;;;;;;;;;7.40;99.10;;;;;;5043061;28;20274;-92
2021/04/17 04:59:30;;;;;;;;;;;7.40;99.10;;;;;;5054649;28;20286;-92
2021/04/17 05:01:55;;;;;;;;;;;7.40;99.00;;;;;;5054159;28;19982;-93
2021/04/17 05:04:21;;;;;;;;;;;7.40;99.00;;;;;;5033123;28;19920;-91
2021/04/17 05:06:46;;;;;;;;;;;7.50;99.00;;;;;;5040316;28;19916;-91
2021/04/17 05:09:12;;;;;;;;;;;7.50;99.00;;;;;;5036017;28;20004;-93
2021/04/17 05:11:38;;;;;;;;;;;7.50;98.80;;;;;;5053826;28;20008;-92
2021/04/17 05:14:03;;;;;;;;;;;7.40;98.90;;;;;;5030640;28;19948;-93
2021/04/17 05:16:29;;;;;;;;;;;7.50;99.20;;;;;;5053013;28;19987;-93
2021/04/17 05:18:54;;;;;;;;;;;7.60;99.10;;;;;;5054315;28;19970;-91
2021/04/17 05:21:20;;;;;;;;;;;7.50;98.90;;;;;;5026829;28;19912;-92
2021/04/17 05:23:45;;;;;;;;;;;7.60;99.10;;;;;;5054065;28;19912;-92
2021/04/17 05:26:11;;;;;;;;;;;7.60;99.10;;;;;;5049464;28;19962;-92
2021/04/17 05:28:36;;;;;;;;;;;7.60;99.10;;;;;;5039455;28;19913;-93
2021/04/17 05:31:02;;;;;;;;;;;7.70;99.10;;;;;;5053542;28;19913;-93
2021/04/17 05:33:27;;;;;;;;;;;7.70;99.10;;;;;;5053064;28;19970;-93
2021/04/17 05:35:53;;;;;;;;;;;7.80;99.10;;;;;;5053121;28;19986;-90
2021/04/17 05:38:19;;;;;;;;;;;7.90;98.90;;;;;;5054546;28;20260;-92
2021/04/17 05:40:44;;;;;;;;;;;7.90;98.80;;;;;;5054053;28;19920;-90
2021/04/17 05:43:10;;;;;;;;;;;8.00;98.70;;;;;;5033726;28;19913;-92
2021/04/17 05:45:41;;;;;;;;;;;8.00;98.60;;;;;;5053584;28;19916;-91
2021/04/17 05:48:07;;;;;;;;;;;8.00;98.60;;;;;;5053750;28;19995;-91
2021/04/17 05:50:33;;;;;;;;;;;8.00;98.40;;;;;;5036022;28;20352;-93
2021/04/17 05:52:59;;;;;;;;;;;8.10;98.30;;;;;;5036027;28;20365;-91
2021/04/17 05:55:24;;;;;;;;;;;8.10;98.50;;;;;;5052744;28;19921;-93
2021/04/17 05:57:50;;;;;;;;;;;8.10;98.60;;;;;;5032145;28;19913;-92
2021/04/17 06:00:16;;;;;;;;;;;8.10;98.60;;;;;;5034972;28;20458;-92
2021/04/17 06:02:41;;;;;;;;;;;8.10;98.50;;;;;;5026272;28;19913;-92
2021/04/17 06:05:07;;;;;;;;;;;8.20;98.40;;;;;;5053808;28;19913;-93
2021/04/17 06:07:33;;;;;;;;;;;8.20;98.30;;;;;;5049423;28;20358;-92
2021/04/17 06:09:58;;;;;;;;;;;8.30;98.60;;;;;;5052689;28;19921;-92
2021/04/17 06:12:24;;;;;;;;;;;8.30;98.30;;;;;;5053355;28;19908;-92
2021/04/17 06:14:49;;;;;;;;;;;8.30;98.20;;;;;;5036150;28;19917;-92
2021/04/17 06:17:15;;;;;;;;;;;8.30;98.20;;;;;;5054071;28;19935;-92
2021/04/17 06:19:40;;;;;;;;;;;8.40;98.20;;;;;;5048547;28;19935;-92
2021/04/17 06:22:06;;;;;;;;;;;8.40;98.20;;;;;;5053612;28;19967;-93
2021/04/17 06:24:31;;;;;;;;;;;8.40;98.00;;;;;;5053914;28;19913;-93
2021/04/17 06:26:57;;;;;;;;;;;8.40;98.00;;;;;;5053705;28;19916;-91
2021/04/17 06:29:22;;;;;;;;;;;8.50;98.00;;;;;;5053597;28;19954;-92
2021/04/17 06:31:48;;;;;;;;;;;8.50;98.00;;;;;;5048478;28;19920;-94
2021/04/17 06:34:14;;;;;;;;;;;8.50;97.90;;;;;;5053275;28;19928;-91
2021/04/17 06:36:39;;;;;;;;;;;8.50;97.90;;;;;;5052438;28;20394;-93
2021/04/17 06:39:08;;;;;;;;;;;8.40;98.00;;;;;;5053975;28;20441;-92
2021/04/17 06:41:35;;;;;;;;;;;8.40;98.20;;;;;;5053773;28;19913;-92
2021/04/17 06:44:01;;;;;;;;;;;8.40;98.30;;;;;;5054677;28;19920;-92
2021/04/17 06:46:30;;;;;;;;;;;8.40;98.20;;;;;;5052041;28;20420;-92
2021/04/17 06:48:56;;;;;;;;;;;8.50;98.20;;;;;;5045061;28;19919;-91
2021/04/17 06:51:22;;;;;;;;;;;8.50;98.10;;;;;;5054924;28;19912;-92
2021/04/17 06:53:47;;;;;;;;;;;8.60;98.00;;;;;;5052283;28;19961;-93
2021/04/17 06:56:13;;;;;;;;;;;8.60;97.80;;;;;;5042245;28;19921;-93
2021/04/17 06:58:39;;;;;;;;;;;8.70;97.70;;;;;;5050879;28;19909;-92
2021/04/17 07:01:06;;;;;;;;;;;8.70;97.70;;;;;;5056940;28;19916;-92
2021/04/17 07:03:31;;;;;;;;;;;8.80;97.80;;;;;;5037435;28;19953;-92
2021/04/17 07:05:57;;;;;;;;;;;8.80;97.70;;;;;;5037152;28;19913;-91
2021/04/17 07:08:22;;;;;;;;;;;8.80;97.50;;;;;;5042001;28;19920;-91
2021/04/17 07:10:48;;;;;;;;;;;8.90;97.50;;;;;;5057335;28;19919;-92
2021/04/17 07:13:14;;;;;;;;;;;9.00;97.10;;;;;;5056947;28;19916;-92
2021/04/17 07:15:41;;;;;;;;;;;9.00;97.10;;;;;;5024598;28;19921;-93
2021/04/17 07:18:39;;;;;;;;;;;9.00;97.00;;;;;;5055720;28;19921;-93
2021/04/17 07:21:13;;;;;;;;;;;8.90;96.90;;;;;;4972971;28;19960;-91
2021/04/17 07:23:43;;;;;;;;;;;8.80;97.00;;;;;;4968584;28;19952;-91
2021/04/17 07:26:12;;;;;;;;;;;8.80;97.20;;;;;;4976692;28;19910;-92
2021/04/17 07:28:38;;;;;;;;;;;8.70;97.50;;;;;;4976767;28;20355;-93
2021/04/17 07:31:04;;;;;;;;;;;8.70;97.60;;;;;;4975666;28;19910;-93
2021/04/17 07:33:30;;;;;;;;;;;8.70;97.70;;;;;;4959007;28;20412;-90
2021/04/17 07:35:56;;;;;;;;;;;8.80;97.70;;;;;;4960781;28;20451;-93
2021/04/17 07:38:26;;;;;;;;;;;8.80;97.70;;;;;;4960591;28;19915;-91
2021/04/17 07:41:00;;;;;;;;;;;8.90;97.60;;;;;;4952584;28;19914;-92
2021/04/17 07:43:45;;;;;;;;;;;8.90;97.70;;;;;;4957636;28;19925;-92
2021/04/17 07:46:11;;;;;;;;;;;9.00;97.40;;;;;;4969295;28;19926;-91
2021/04/17 07:48:37;;;;;;;;;;;8.90;97.30;;;;;;4955648;28;19917;-90
2021/04/17 07:51:04;;;;;;;;;;;8.90;97.50;;;;;;4974814;28;19918;-90
2021/04/17 07:53:31;;;;;;;;;;;8.90;97.80;;;;;;4953987;28;19949;-93
2021/04/17 07:56:16;;;;;;;;;;;9.00;97.70;;;;;;4978008;28;20712;-93
2021/04/17 07:58:46;;;;;;;;;;;9.00;97.40;;;;;;5044147;28;19967;-91
2021/04/17 08:01:12;;;;;;;;;;;9.00;97.30;;;;;;5019446;28;20385;-89
2021/04/17 08:03:37;;;;;;;;;;;9.00;97.40;;;;;;5019728;28;20081;-90
2021/04/17 08:06:03;;;;;;;;;;;9.00;97.20;;;;;;5034585;28;19948;-93
2021/04/17 08:08:29;;;;;;;;;;;9.00;97.50;;;;;;5031629;28;19913;-91
2021/04/17 08:10:55;;;;;;;;;;;9.00;97.70;;;;;;5033609;28;19913;-91
2021/04/17 08:13:21;;;;;;;;;;;9.00;97.70;;;;;;5033622;28;19909;-92
2021/04/17 08:15:47;;;;;;;;;;;8.90;97.70;;;;;;5033979;28;19967;-91
2021/04/17 08:18:12;;;;;;;;;;;8.90;98.00;;;;;;5040590;28;19912;-92
2021/04/17 08:20:38;;;;;;;;;;;9.00;98.00;;;;;;5035833;28;20438;-92
2021/04/17 08:23:03;;;;;;;;;;;9.00;97.90;;;;;;5035791;28;19913;-92
2021/04/17 08:25:29;;;;;;;;;;;9.10;97.90;;;;;;5039286;28;19921;-92
2021/04/17 08:27:55;;;;;;;;;;;9.10;97.90;;;;;;5030217;28;19913;-91
2021/04/17 08:30:27;;;;;;;;;;;9.20;97.50;;;;;;5026883;28;19952;-91
2021/04/17 08:32:53;;;;;;;;;;;9.20;97.40;;;;;;5041735;28;20011;-90
2021/04/17 08:35:19;;;;;;;;;;;9.20;97.50;;;;;;5037126;28;19925;-91
2021/04/17 08:37:54;;;;;;;;;;;9.30;97.70;;;;;;5054877;28;19940;-90
2021/04/17 08:40:32;;;;;;;;;;;9.30;97.70;;;;;;5055325;28;19930;-92
2021/04/17 08:42:58;;;;;;;;;;;9.40;97.60;;;;;;5045646;28;19913;-91
2021/04/17 08:45:23;;;;;;;;;;;9.50;97.60;;;;;;5037227;28;20362;-89
2021/04/17 08:47:51;;;;;;;;;;;9.60;97.50;;;;;;5054884;28;19913;-91
2021/04/17 08:50:23;;;;;;;;;;;9.60;97.00;;;;;;5054005;28;19913;-93
2021/04/17 08:52:56;;;;;;;;;;;9.60;97.00;;;;;;5054422;28;19995;-90
2021/04/17 08:55:22;;;;;;;;;;;9.70;96.90;;;;;;5037391;28;19941;-91
2021/04/17 08:58:06;;;;;;;;;;;9.70;97.00;;;;;;5032257;28;19913;-92
2021/04/17 09:00:32;;;;;;;;;;;9.80;96.90;;;;;;5059564;28;20003;-91
2021/04/17 09:02:57;;;;;;;;;;;9.70;96.80;;;;;;5054260;28;20338;-91
2021/04/17 09:05:23;;;;;;;;;;;9.80;96.90;;;;;;5053550;28;19978;-92
2021/04/17 09:08:08;;;;;;;;;;;9.80;96.90;;;;;;5035948;28;19912;-90
2021/04/17 09:10:35;;;;;;;;;;;9.80;96.70;;;;;;5033954;28;19909;-91
2021/04/17 09:13:10;;;;;;;;;;;9.80;96.80;;;;;;5054031;28;19913;-89
2021/04/17 09:15:48;;;;;;;;;;;9.80;96.90;;;;;;5049944;28;19917;-92
2021/04/17 09:18:33;;;;;;;;;;;9.80;96.90;;;;;;5051841;28;20382;-91
2021/04/17 09:21:19;;;;;;;;;;;9.90;96.80;;;;;;5033667;28;19909;-89
2021/04/17 09:23:46;;;;;;;;;;;9.90;96.60;;;;;;5019745;28;20464;-91
2021/04/17 09:26:47;;;;;;;;;;;10.00;96.60;;;;;;5043480;28;19917;-92
2021/04/17 09:29:13;;;;;;;;;;;10.10;96.30;;;;;;4954202;28;19976;-91
2021/04/17 09:31:38;;;;;;;;;;;10.10;96.20;;;;;;4952711;29;19958;-92
2021/04/17 09:34:08;;;;;;;;;;;10.20;96.00;;;;;;4956375;28;19922;-90
2021/04/17 09:36:34;;;;;;;;;;;10.20;96.00;;;;;;4971362;28;19968;-89
2021/04/17 09:39:02;;;;;;;;;;;10.30;96.20;;;;;;4955968;28;21334;-90
2021/04/17 09:41:46;;;;;;;;;;;10.40;96.20;;;;;;4955562;28;19930;-92
2021/04/17 09:44:12;;;;;;;;;;;10.50;96.20;;;;;;4954360;28;19921;-90
2021/04/17 09:46:38;;;;;;;;;;;10.50;95.90;;;;;;4972256;28;20024;-90
2021/04/17 09:49:03;;;;;;;;;;;10.50;95.50;;;;;;4967125;28;19949;-90
2021/04/17 09:51:29;;;;;;;;;;;10.60;95.60;;;;;;4956837;28;19910;-91
2021/04/17 09:54:21;;;;;;;;;;;10.70;95.80;;;;;;4968578;28;19921;-92
2021/04/17 09:56:47;;;;;;;;;;;10.80;95.40;;;;;;4953186;28;19926;-91
2021/04/17 09:59:15;;;;;;;;;;;10.90;95.30;;;;;;4971663;28;20403;-91
2021/04/17 10:01:57;;;;;;;;;;;10.90;95.00;;;;;;4969877;28;19914;-91
2021/04/17 10:04:23;;;;;;;;;;;10.90;94.70;;;;;;5043225;28;19916;-91
2021/04/17 10:06:58;;;;;;;;;;;10.90;94.90;;;;;;5043084;28;20397;-91
2021/04/17 10:09:24;;;;;;;;;;;10.90;95.20;;;;;;5047012;28;19999;-91
2021/04/17 10:11:50;;;;;;;;;;;10.90;95.20;;;;;;5015669;28;20002;-90
2021/04/17 10:14:16;;;;;;;;;;;11.00;95.30;;;;;;5046895;28;19913;-91
2021/04/17 10:17:02;;;;;;;;;;;11.10;95.30;;;;;;5030774;28;19992;-94
2021/04/17 10:19:29;;;;;;;;;;;11.20;95.00;;;;;;5053599;28;19921;-91
2021/04/17 10:21:59;;;;;;;;;;;11.30;94.80;;;;;;5038606;28;19932;-91
2021/04/17 10:24:28;;;;;;;;;;;11.30;94.80;;;;;;5057256;28;20366;-91
2021/04/17 10:27:04;;;;;;;;;;;11.40;94.40;;;;;;5060829;28;19924;-89
2021/04/17 10:29:35;;;;;;;;;;;11.30;93.90;;;;;;5057775;28;20385;-94
2021/04/17 10:32:02;;;;;;;;;;;11.40;94.10;;;;;;5058129;28;19916;-93
2021/04/17 10:34:28;;;;;;;;;;;11.40;94.40;;;;;;5057984;28;20578;-90
2021/04/17 10:36:54;;;;;;;;;;;11.40;94.50;;;;;;5056937;28;19913;-94
2021/04/17 10:39:20;;;;;;;;;;;11.50;94.00;;;;;;5072356;28;19912;-93
2021/04/17 10:41:56;;;;;;;;;;;11.50;93.90;;;;;;5043886;28;19921;-92
2021/04/17 10:44:21;;;;;;;;;;;11.40;94.40;;;;;;5057736;28;19913;-94
2021/04/17 10:46:48;;;;;;;;;;;11.40;94.40;;;;;;5056996;28;19917;-94
2021/04/17 10:49:34;;;;;;;;;;;11.40;94.50;;;;;;5048197;28;19922;-92
2021/04/17 10:52:00;;;;;;;;;;;11.40;94.50;;;;;;5051192;28;20059;-93
2021/04/17 10:54:26;;;;;;;;;;;11.20;94.60;;;;;;5056079;28;19913;-93
2021/04/17 10:56:58;;;;;;;;;;;11.20;94.70;;;;;;5040551;28;19916;-95
2021/04/17 10:59:23;;;;;;;;;;;11.20;94.40;;;;;;5057682;28;19917;-91
2021/04/17 11:01:49;;;;;;;;;;;11.20;94.80;;;;;;5056077;28;19920;-94
2021/04/17 11:04:15;;;;;;;;;;;11.30;94.70;;;;;;5038133;28;20013;-94
2021/04/17 11:06:45;;;;;;;;;;;11.40;94.40;;;;;;5057393;28;19913;-94
2021/04/17 11:09:14;;;;;;;;;;;11.50;94.10;;;;;;5057972;28;19909;-92
2021/04/17 11:12:00;;;;;;;;;;;11.50;94.10;;;;;;5057638;28;19913;-92
2021/04/17 11:14:27;;;;;;;;;;;11.60;93.70;;;;;;5056582;28;19996;-94
2021/04/17 11:16:53;;;;;;;;;;;11.80;93.80;;;;;;5042829;28;19913;-90
2021/04/17 11:19:28;;;;;;;;;;;12.00;93.30;;;;;;5030012;28;19947;-94
2021/04/17 11:22:10;;;;;;;;;;;12.10;92.90;;;;;;5057160;28;20012;-93
2021/04/17 11:24:59;;;;;;;;;;;12.10;93.00;;;;;;5057954;28;19940;-90
2021/04/17 11:27:26;;;;;;;;;;;12.30;93.00;;;;;;5038992;28;19908;-93
2021/04/17 11:29:53;;;;;;;;;;;12.30;92.70;;;;;;5043149;28;19909;-94
2021/04/17 11:32:19;;;;;;;;;;;12.30;92.60;;;;;;5054797;28;19919;-90
2021/04/17 11:34:45;;;;;;;;;;;12.20;92.90;;;;;;5038475;28;19921;-94
2021/04/17 11:37:11;;;;;;;;;;;12.10;93.10;;;;;;5028998;28;19909;-92
2021/04/17 11:39:37;;;;;;;;;;;12.10;93.20;;;;;;5059602;28;19921;-94
2021/04/17 11:42:02;;;;;;;;;;;12.20;93.00;;;;;;5059766;28;19915;-92
2021/04/17 11:44:28;;;;;;;;;;;12.10;93.10;;;;;;5038818;28;19913;-94
2021/04/17 11:46:56;;;;;;;;;;;12.10;93.00;;;;;;5038855;28;19960;-93
2021/04/17 11:49:22;;;;;;;;;;;12.10;93.20;;;;;;5036625;28;19913;-93
2021/04/17 11:51:47;;;;;;;;;;;12.10;93.40;;;;;;5055884;28;19923;-93
2021/04/17 11:54:13;;;;;;;;;;;12.20;93.30;;;;;;5056196;28;19912;-93
2021/04/17 11:56:38;;;;;;;;;;;12.20;93.30;;;;;;5056215;28;19920;-92
2021/04/17 11:59:04;;;;;;;;;;;12.30;93.30;;;;;;5038976;28;19936;-91
2021/04/17 12:01:29;;;;;;;;;;;12.30;93.00;;;;;;5036000;28;19999;-92
2021/04/17 12:03:55;;;;;;;;;;;12.40;93.50;;;;;;5034947;28;19913;-91
2021/04/17 12:06:26;;;;;;;;;;;12.40;93.30;;;;;;5038050;28;19913;-92
2021/04/17 12:08:52;;;;;;;;;;;12.70;93.00;;;;;;5057399;28;19915;-93
2021/04/17 12:11:18;;;;;;;;;;;13.00;91.30;;;;;;5037611;28;20003;-91
2021/04/17 12:13:43;;;;;;;;;;;13.20;90.50;;;;;;5054845;28;19916;-90
2021/04/17 12:16:09;;;;;;;;;;;13.30;90.30;;;;;;5054859;28;19921;-91
2021/04/17 12:18:34;;;;;;;;;;;13.30;88.60;;;;;;5029422;28;19920;-93
2021/04/17 12:21:00;;;;;;;;;;;13.40;90.40;;;;;;5041799;28;19957;-91
2021/04/17 12:23:25;;;;;;;;;;;13.30;90.20;;;;;;5055298;28;20282;-93
2021/04/17 12:25:51;;;;;;;;;;;13.30;90.30;;;;;;5038385;28;19912;-92
2021/04/17 12:28:17;;;;;;;;;;;13.20;88.90;;;;;;5050769;28;19962;-92
2021/04/17 12:30:42;;;;;;;;;;;13.20;89.80;;;;;;5043438;28;19917;-92
2021/04/17 12:33:09;;;;;;;;;;;13.10;90.40;;;;;;5044939;28;19998;-91
2021/04/17 12:35:34;;;;;;;;;;;13.00;91.10;;;;;;5037137;28;20375;-93
2021/04/17 12:38:00;;;;;;;;;;;13.00;91.10;;;;;;5037362;28;19909;-93
2021/04/17 12:40:26;;;;;;;;;;;12.90;91.20;;;;;;5054700;28;19916;-93
2021/04/17 12:42:51;;;;;;;;;;;12.80;90.20;;;;;;5053824;28;19913;-92
2021/04/17 12:45:17;;;;;;;;;;;12.80;90.60;;;;;;5037497;28;19939;-91
2021/04/17 12:47:44;;;;;;;;;;;12.70;90.80;;;;;;5057862;28;19923;-91
2021/04/17 12:50:10;;;;;;;;;;;12.70;90.70;;;;;;5039785;28;20298;-93
2021/04/17 12:52:36;;;;;;;;;;;12.80;91.00;;;;;;5035186;28;19913;-91
2021/04/17 12:55:02;;;;;;;;;;;12.90;91.30;;;;;;5055814;28;20469;-91
2021/04/17 12:57:27;;;;;;;;;;;13.10;91.20;;;;;;5050192;28;19963;-94
2021/04/17 12:59:53;;;;;;;;;;;13.20;91.00;;;;;;5053480;28;19917;-91
2021/04/17 13:02:18;;;;;;;;;;;13.20;91.30;;;;;;5036460;28;20332;-91
2021/04/17 13:04:44;;;;;;;;;;;13.30;91.80;;;;;;5055464;28;20418;-93
2021/04/17 13:07:10;;;;;;;;;;;13.40;92.40;;;;;;5054200;28;19923;-94
2021/04/17 13:09:35;;;;;;;;;;;13.40;92.30;;;;;;5055067;28;19967;-94
2021/04/17 13:12:01;;;;;;;;;;;13.40;92.50;;;;;;5037779;28;19912;-94
2021/04/17 13:14:27;;;;;;;;;;;13.40;92.50;;;;;;5034125;28;19921;-93
2021/04/17 13:16:52;;;;;;;;;;;13.40;92.70;;;;;;5028588;28;19983;-93
2021/04/17 13:19:18;;;;;;;;;;;13.30;92.60;;;;;;5034005;28;20393;-93
2021/04/17 13:21:44;;;;;;;;;;;13.40;92.70;;;;;;5035365;28;19910;-93
2021/04/17 13:24:09;;;;;;;;;;;13.40;93.00;;;;;;5041158;28;19908;-94
2021/04/17 13:26:38;;;;;;;;;;;13.50;92.70;;;;;;5035912;28;19913;-94
2021/04/17 13:29:06;;;;;;;;;;;13.20;92.10;;;;;;5058563;28;19913;-92
2021/04/17 13:31:32;;;;;;;;;;;13.30;92.60;;;;;;5037904;28;19919;-91
2021/04/17 13:33:59;;;;;;;;;;;13.30;92.30;;;;;;5037732;28;19924;-92
2021/04/17 13:36:24;;;;;;;;;;;13.30;92.70;;;;;;5038029;28;19951;-92
2021/04/17 13:38:50;;;;;;;;;;;13.20;92.50;;;;;;5038738;28;19912;-95
2021/04/17 13:41:15;;;;;;;;;;;13.30;92.40;;;;;;5037942;28;20294;-94
2021/04/17 13:43:41;;;;;;;;;;;13.20;92.30;;;;;;5061249;28;20393;-93
2021/04/17 13:46:10;;;;;;;;;;;13.30;92.30;;;;;;5051347;28;19936;-93
2021/04/17 13:48:35;;;;;;;;;;;13.30;91.80;;;;;;5037541;28;20394;-95
2021/04/17 13:51:01;;;;;;;;;;;13.40;92.00;;;;;;5056253;28;19909;-94
2021/04/17 13:53:27;;;;;;;;;;;13.50;91.50;;;;;;5036825;28;20384;-94
2021/04/17 13:55:53;;;;;;;;;;;13.20;91.40;;;;;;5057142;28;19920;-92
2021/04/17 13:58:18;;;;;;;;;;;13.10;91.80;;;;;;5059850;28;19912;-95
2021/04/17 14:00:44;;;;;;;;;;;13.10;92.20;;;;;;5069277;28;19931;-95
2021/04/17 14:03:17;;;;;;;;;;;13.10;92.40;;;;;;5026327;28;19988;-94
2021/04/17 14:05:44;;;;;;;;;;;13.10;91.70;;;;;;5041446;28;19931;-95
2021/04/17 14:08:11;;;;;;;;;;;13.00;91.70;;;;;;5059418;28;19980;-94
2021/04/17 14:13:13;;;;;;;;;;;13.10;91.40;;;;;;5209779;22;20403;-93
2021/04/17 14:15:39;;;;;;;;;;;13.20;91.20;;;;;;5047529;28;19929;-95
2021/04/17 14:18:04;;;;;;;;;;;13.20;91.60;;;;;;5039298;28;19921;-94
2021/04/17 14:20:30;;;;;;;;;;;13.30;91.40;;;;;;5042116;28;19986;-94
2021/04/17 14:22:56;;;;;;;;;;;13.60;91.20;;;;;;5063078;28;19916;-92
2021/04/17 14:25:21;;;;;;;;;;;13.70;90.40;;;;;;5056914;28;19979;-95
2021/04/17 14:27:47;;;;;;;;;;;13.90;90.10;;;;;;5051457;28;19940;-94
2021/04/17 14:30:13;;;;;;;;;;;14.10;88.60;;;;;;5048529;28;19898;-94